createdAt,value
2022-11-28T00:00:39.080Z,89.55
2022-11-28T00:01:43.409Z,89.19
2022-11-28T00:02:45.157Z,87.91
2022-11-28T00:03:47.258Z,87.89
2022-11-28T00:04:52.473Z,87.44
2022-11-28T00:05:54.189Z,86.70
2022-11-28T00:06:56.028Z,86.31
2022-11-28T00:07:57.682Z,85.87
2022-11-28T00:09:00.338Z,86.37
2022-11-28T00:10:02.202Z,86.22
2022-11-28T00:11:08.354Z,85.69
2022-11-28T00:12:09.929Z,85.63
2022-11-28T00:13:11.581Z,85.84
2022-11-28T00:14:14.488Z,85.88
2022-11-28T00:15:16.178Z,86.10
2022-11-28T00:16:21.630Z,86.15
2022-11-28T00:17:23.347Z,86.72
2022-11-28T00:18:25.178Z,86.38
2022-11-28T00:19:26.738Z,86.66
2022-11-28T00:20:30.914Z,86.97
2022-11-28T00:21:32.681Z,86.47
2022-11-28T00:22:34.276Z,86.61
2022-11-28T00:23:35.994Z,86.25
2022-11-28T00:24:37.582Z,86.74
2022-11-28T00:25:39.132Z,86.86
2022-11-28T00:26:42.321Z,87.50
2022-11-28T00:27:44.237Z,87.17
2022-11-28T00:28:46.073Z,87.45
2022-11-28T00:29:47.895Z,87.81
2022-11-28T00:30:49.541Z,88.11
2022-11-28T00:31:51.392Z,87.70
2022-11-28T00:32:52.977Z,87.16
2022-11-28T00:33:55.409Z,86.84
2022-11-28T00:34:57.009Z,87.89
2022-11-28T00:36:05.110Z,87.35
2022-11-28T00:37:06.658Z,87.88
2022-11-28T00:38:08.271Z,87.40
2022-11-28T00:39:09.947Z,87.86
2022-11-28T00:40:11.605Z,88.05
2022-11-28T00:41:15.506Z,88.10
2022-11-28T00:42:20.588Z,88.82
2022-11-28T00:43:22.158Z,89.74
2022-11-28T00:44:23.766Z,89.93
2022-11-28T00:45:25.426Z,89.49
2022-11-28T00:46:27.805Z,89.41
2022-11-28T00:47:29.426Z,90.18
2022-11-28T00:48:32.853Z,90.14
2022-11-28T00:49:34.445Z,89.86
2022-11-28T00:50:35.951Z,90.01
2022-11-28T00:51:38.238Z,90.01
2022-11-28T00:52:39.777Z,90.15
2022-11-28T00:53:43.031Z,90.41
2022-11-28T00:54:44.740Z,90.65
2022-11-28T00:55:46.413Z,90.48
2022-11-28T00:56:48.022Z,90.27
2022-11-28T00:57:49.649Z,90.70
2022-11-28T00:58:52.062Z,91.29
2022-11-28T00:59:53.610Z,90.29
2022-11-28T01:00:55.166Z,90.54
2022-11-28T01:01:56.757Z,90.06
2022-11-28T01:02:58.354Z,90.39
2022-11-28T01:04:04.357Z,90.18
2022-11-28T01:05:06.528Z,90.14
2022-11-28T01:06:09.067Z,90.15
2022-11-28T01:07:10.564Z,89.78
2022-11-28T01:08:12.210Z,89.95
2022-11-28T01:09:20.420Z,89.45
2022-11-28T01:10:22.324Z,89.11
2022-11-28T01:11:23.899Z,89.11
2022-11-28T01:12:25.463Z,89.63
2022-11-28T01:13:27.142Z,89.67
2022-11-28T01:14:30.303Z,89.77
2022-11-28T01:15:31.830Z,89.36
2022-11-28T01:16:33.552Z,89.39
2022-11-28T01:17:35.753Z,89.30
2022-11-28T01:18:37.851Z,88.94
2022-11-28T01:19:39.433Z,88.70
2022-11-28T01:20:41.120Z,88.80
2022-11-28T01:21:42.767Z,88.63
2022-11-28T01:22:44.308Z,88.18
2022-11-28T01:23:45.892Z,88.16
2022-11-28T01:24:47.433Z,88.32
2022-11-28T01:25:49.007Z,88.38
2022-11-28T01:26:50.549Z,88.71
2022-11-28T01:27:52.114Z,89.06
2022-11-28T01:28:54.291Z,89.18
2022-11-28T01:29:55.819Z,89.25
2022-11-28T01:30:57.379Z,88.33
2022-11-28T01:31:58.969Z,88.41
2022-11-28T01:33:00.622Z,88.41
2022-11-28T01:34:02.372Z,87.59
2022-11-28T01:35:04.386Z,87.88
2022-11-28T01:36:06.384Z,86.74
2022-11-28T01:37:08.157Z,87.04
2022-11-28T01:38:09.741Z,86.98
2022-11-28T01:39:12.236Z,86.86
2022-11-28T01:40:14.149Z,86.92
2022-11-28T01:41:18.542Z,87.08
2022-11-28T01:42:20.602Z,87.87
2022-11-28T01:43:22.966Z,88.36
2022-11-28T01:44:24.428Z,88.56
2022-11-28T01:45:30.389Z,88.31
2022-11-28T01:46:33.397Z,88.86
2022-11-28T01:47:35.868Z,88.68
2022-11-28T01:48:42.550Z,87.91
2022-11-28T01:49:45.304Z,87.77
2022-11-28T01:50:50.044Z,88.05
2022-11-28T01:51:57.800Z,88.05
2022-11-28T01:53:04.676Z,88.51
2022-11-28T01:54:06.746Z,87.95
2022-11-28T01:55:10.861Z,88.46
2022-11-28T01:56:23.371Z,88.43
2022-11-28T01:57:26.871Z,88.89
2022-11-28T01:58:30.813Z,88.82
2022-11-28T01:59:41.807Z,89.14
2022-11-28T02:00:43.504Z,89.00
2022-11-28T02:01:45.837Z,88.85
2022-11-28T02:02:56.513Z,88.17
2022-11-28T02:03:59.457Z,88.54
2022-11-28T02:05:01.279Z,87.58
2022-11-28T02:06:02.966Z,88.13
2022-11-28T02:07:04.701Z,87.51
2022-11-28T02:08:07.227Z,87.61
2022-11-28T02:09:16.497Z,88.35
2022-11-28T02:10:26.234Z,88.33
2022-11-28T02:12:01.868Z,87.97
2022-11-28T02:13:26.858Z,87.98
2022-11-28T02:14:34.320Z,87.33
2022-11-28T02:16:06.139Z,87.86
2022-11-28T02:17:16.840Z,88.14
2022-11-28T02:18:47.485Z,88.58
2022-11-28T02:20:30.231Z,89.63
2022-11-28T02:21:54.828Z,89.58
2022-11-28T02:23:11.128Z,89.73
2022-11-28T02:24:40.199Z,89.47
2022-11-28T02:26:17.354Z,88.97
2022-11-28T02:27:40.439Z,89.15
2022-11-28T02:29:24.282Z,89.76
2022-11-28T02:30:51.405Z,89.62
2022-11-28T02:31:52.950Z,89.25
2022-11-28T02:33:07.133Z,90.47
2022-11-28T02:34:30.911Z,89.71
2022-11-28T02:35:42.657Z,89.75
2022-11-28T02:36:49.956Z,89.39
2022-11-28T02:37:57.428Z,89.37
2022-11-28T02:39:22.748Z,89.70
2022-11-28T02:40:38.944Z,89.76
2022-11-28T02:41:55.497Z,89.95
2022-11-28T02:43:08.929Z,89.34
2022-11-28T02:44:24.946Z,89.12
2022-11-28T02:45:46.207Z,88.98
2022-11-28T02:46:55.360Z,89.39
2022-11-28T02:48:04.765Z,88.66
2022-11-28T02:49:12.527Z,88.66
2022-11-28T02:50:22.166Z,88.79
2022-11-28T02:51:49.902Z,89.37
2022-11-28T02:53:07.521Z,89.06
2022-11-28T02:54:12.870Z,88.96
2022-11-28T02:55:15.238Z,89.38
2022-11-28T02:56:16.800Z,88.42
2022-11-28T02:57:18.362Z,87.99
2022-11-28T02:58:20.048Z,87.75
2022-11-28T02:59:41.873Z,88.24
2022-11-28T03:00:47.041Z,88.00
2022-11-28T03:01:48.719Z,88.06
2022-11-28T03:02:59.225Z,87.82
2022-11-28T03:04:13.090Z,88.10
2022-11-28T03:05:22.613Z,88.28
2022-11-28T03:06:44.712Z,88.20
2022-11-28T03:08:06.494Z,88.17
2022-11-28T03:09:26.313Z,88.25
2022-11-28T03:10:42.830Z,88.56
2022-11-28T03:11:44.338Z,88.80
2022-11-28T03:13:04.225Z,88.95
2022-11-28T03:14:24.186Z,88.51
2022-11-28T03:15:36.579Z,88.94
2022-11-28T03:16:42.642Z,88.67
2022-11-28T03:18:05.526Z,88.25
2022-11-28T03:19:14.917Z,87.62
2022-11-28T03:20:22.785Z,87.50
2022-11-28T03:21:46.794Z,87.97
2022-11-28T03:23:33.156Z,87.25
2022-11-28T03:24:34.717Z,87.54
2022-11-28T03:25:36.202Z,87.98
2022-11-28T03:26:53.151Z,88.14
2022-11-28T03:28:11.800Z,87.53
2022-11-28T03:29:22.066Z,87.54
2022-11-28T03:30:43.466Z,87.34
2022-11-28T03:31:51.759Z,87.28
2022-11-28T03:32:56.023Z,87.44
2022-11-28T03:34:00.726Z,86.82
2022-11-28T03:35:25.662Z,86.62
2022-11-28T03:36:31.908Z,86.85
2022-11-28T03:37:37.996Z,87.23
2022-11-28T03:38:45.019Z,86.89
2022-11-28T03:39:53.348Z,86.39
2022-11-28T03:40:58.892Z,87.09
2022-11-28T03:42:10.111Z,87.08
2022-11-28T03:43:17.797Z,87.49
2022-11-28T03:44:40.179Z,88.17
2022-11-28T03:45:46.885Z,88.08
2022-11-28T03:46:51.839Z,88.18
2022-11-28T03:48:00.496Z,88.44
2022-11-28T03:49:03.803Z,88.27
2022-11-28T03:50:11.431Z,88.23
2022-11-28T03:51:20.667Z,87.52
2022-11-28T03:52:33.481Z,88.24
2022-11-28T03:53:45.674Z,87.73
2022-11-28T03:54:54.220Z,87.63
2022-11-28T03:56:00.059Z,87.57
2022-11-28T03:57:13.778Z,87.53
2022-11-28T03:58:33.798Z,87.43
2022-11-28T03:59:38.752Z,87.31
2022-11-28T04:00:51.617Z,86.96
2022-11-28T04:01:56.234Z,86.72
2022-11-28T04:03:19.515Z,86.99
2022-11-28T04:04:45.853Z,87.02
2022-11-28T04:05:53.164Z,86.98
2022-11-28T04:07:31.723Z,86.98
2022-11-28T04:08:41.305Z,86.42
2022-11-28T04:09:50.977Z,86.60
2022-11-28T04:11:10.421Z,86.89
2022-11-28T04:12:33.394Z,86.58
2022-11-28T04:13:45.852Z,86.93
2022-11-28T04:14:53.431Z,86.60
2022-11-28T04:15:55.214Z,86.73
2022-11-28T04:17:36.682Z,86.48
2022-11-28T04:19:08.893Z,86.85
2022-11-28T04:20:31.059Z,86.13
2022-11-28T04:21:41.424Z,86.32
2022-11-28T04:22:48.675Z,86.39
2022-11-28T04:23:52.743Z,86.12
2022-11-28T04:25:10.138Z,85.76
2022-11-28T04:26:20.237Z,85.77
2022-11-28T04:27:32.867Z,85.71
2022-11-28T04:28:37.455Z,85.38
2022-11-28T04:29:45.584Z,85.34
2022-11-28T04:30:50.693Z,85.28
2022-11-28T04:31:56.627Z,85.71
2022-11-28T04:33:03.896Z,85.61
2022-11-28T04:34:08.808Z,86.16
2022-11-28T04:35:16.248Z,86.52
2022-11-28T04:36:20.469Z,86.58
2022-11-28T04:37:25.913Z,86.18
2022-11-28T04:38:29.788Z,86.48
2022-11-28T04:39:33.425Z,86.27
2022-11-28T04:40:44.806Z,85.95
2022-11-28T04:42:02.692Z,85.33
2022-11-28T04:43:10.907Z,85.15
2022-11-28T04:44:22.276Z,85.19
2022-11-28T04:45:34.655Z,85.06
2022-11-28T04:46:41.515Z,85.07
2022-11-28T04:47:44.754Z,85.24
2022-11-28T04:48:46.508Z,85.10
2022-11-28T04:49:48.257Z,85.40
2022-11-28T04:51:01.455Z,84.95
2022-11-28T04:52:16.837Z,85.28
2022-11-28T04:53:46.434Z,87.12
2022-11-28T04:55:06.354Z,87.52
2022-11-28T04:56:13.678Z,87.87
2022-11-28T04:57:24.391Z,88.43
2022-11-28T04:58:33.072Z,88.63
2022-11-28T04:59:35.114Z,89.24
2022-11-28T05:00:38.283Z,90.24
2022-11-28T05:01:41.953Z,90.60
2022-11-28T05:02:46.660Z,90.89
2022-11-28T05:03:48.784Z,91.12
2022-11-28T05:04:53.267Z,91.12
2022-11-28T05:05:54.826Z,90.57
2022-11-28T05:07:08.186Z,91.70
2022-11-28T05:08:10.192Z,91.51
2022-11-28T05:09:12.787Z,92.61
2022-11-28T05:10:18.252Z,92.14
2022-11-28T05:11:20.258Z,92.16
2022-11-28T05:12:21.833Z,92.42
2022-11-28T05:13:23.525Z,92.49
2022-11-28T05:14:25.226Z,94.26
2022-11-28T05:15:26.832Z,95.38
2022-11-28T05:16:28.437Z,93.89
2022-11-28T05:17:30.399Z,93.58
2022-11-28T05:18:31.960Z,92.67
2022-11-28T05:19:33.778Z,93.07
2022-11-28T05:20:37.359Z,93.96
2022-11-28T05:21:38.905Z,93.82
2022-11-28T05:22:40.439Z,93.22
2022-11-28T05:23:43.902Z,92.73
2022-11-28T05:24:45.652Z,92.91
2022-11-28T05:25:47.476Z,93.13
2022-11-28T05:26:49.125Z,93.34
2022-11-28T05:27:50.707Z,92.69
2022-11-28T05:28:52.642Z,92.93
2022-11-28T05:29:54.316Z,93.36
2022-11-28T05:31:00.170Z,92.79
2022-11-28T05:32:01.841Z,92.62
2022-11-28T05:33:03.863Z,93.09
2022-11-28T05:34:05.578Z,94.24
2022-11-28T05:35:07.808Z,94.94
2022-11-28T05:36:13.417Z,94.93
2022-11-28T05:37:15.960Z,94.37
2022-11-28T05:38:17.567Z,93.72
2022-11-28T05:39:19.104Z,93.11
2022-11-28T05:40:20.711Z,92.82
2022-11-28T05:41:27.978Z,92.80
2022-11-28T05:42:32.782Z,92.30
2022-11-28T05:43:34.387Z,92.16
2022-11-28T05:44:37.194Z,91.86
2022-11-28T05:45:45.627Z,91.52
2022-11-28T05:46:47.736Z,90.90
2022-11-28T05:47:49.343Z,90.74
2022-11-28T05:48:50.875Z,91.52
2022-11-28T05:49:52.470Z,91.79
2022-11-28T05:50:54.036Z,92.26
2022-11-28T05:51:55.573Z,91.79
2022-11-28T05:52:57.089Z,92.25
2022-11-28T05:53:58.611Z,91.60
2022-11-28T05:55:00.389Z,92.03
2022-11-28T05:56:10.158Z,91.96
2022-11-28T05:57:11.693Z,92.17
2022-11-28T05:58:13.763Z,91.96
2022-11-28T05:59:15.407Z,92.12
2022-11-28T06:00:17.536Z,92.40
2022-11-28T06:01:25.150Z,92.92
2022-11-28T06:02:26.820Z,92.34
2022-11-28T06:03:28.403Z,91.72
2022-11-28T06:04:30.043Z,91.80
2022-11-28T06:05:47.475Z,91.80
2022-11-28T06:06:50.933Z,91.72
2022-11-28T06:07:52.595Z,91.49
2022-11-28T06:08:54.406Z,91.99
2022-11-28T06:09:55.936Z,91.93
2022-11-28T06:10:58.831Z,91.90
2022-11-28T06:12:00.548Z,92.18
2022-11-28T06:13:03.004Z,93.07
2022-11-28T06:14:04.633Z,92.42
2022-11-28T06:15:07.044Z,92.01
2022-11-28T06:16:10.529Z,90.95
2022-11-28T06:17:12.183Z,90.40
2022-11-28T06:18:13.713Z,89.09
2022-11-28T06:19:15.474Z,89.19
2022-11-28T06:20:17.294Z,89.85
2022-11-28T06:21:18.882Z,89.13
2022-11-28T06:22:20.617Z,89.50
2022-11-28T06:23:22.142Z,89.26
2022-11-28T06:24:23.743Z,89.62
2022-11-28T06:25:25.257Z,90.41
2022-11-28T06:26:28.239Z,91.04
2022-11-28T06:27:29.763Z,92.66
2022-11-28T06:28:31.298Z,92.60
2022-11-28T06:29:33.064Z,91.78
2022-11-28T06:30:34.655Z,92.13
2022-11-28T06:31:36.543Z,91.98
2022-11-28T06:32:38.285Z,93.34
2022-11-28T06:33:40.557Z,93.68
2022-11-28T06:34:42.128Z,93.16
2022-11-28T06:35:43.685Z,92.36
2022-11-28T06:36:45.334Z,92.16
2022-11-28T06:37:46.986Z,91.40
2022-11-28T06:38:49.068Z,90.81
2022-11-28T06:39:51.356Z,91.19
2022-11-28T06:40:59.695Z,90.84
2022-11-28T06:42:01.290Z,91.32
2022-11-28T06:43:02.813Z,91.01
2022-11-28T06:44:04.618Z,90.99
2022-11-28T06:45:06.713Z,90.86
2022-11-28T06:46:16.762Z,90.13
2022-11-28T06:47:18.536Z,89.54
2022-11-28T06:48:20.881Z,89.86
2022-11-28T06:49:22.632Z,89.22
2022-11-28T06:50:24.159Z,89.03
2022-11-28T06:51:25.897Z,89.53
2022-11-28T06:52:27.677Z,89.48
2022-11-28T06:53:31.529Z,89.32
2022-11-28T06:54:33.356Z,89.37
2022-11-28T06:55:35.030Z,88.95
2022-11-28T06:56:36.597Z,88.41
2022-11-28T06:57:39.321Z,88.22
2022-11-28T06:58:41.940Z,88.82
2022-11-28T06:59:43.577Z,89.13
2022-11-28T07:00:45.285Z,88.98
2022-11-28T07:01:47.120Z,88.79
2022-11-28T07:02:48.829Z,89.07
2022-11-28T07:03:50.773Z,89.50
2022-11-28T07:04:52.467Z,89.77
2022-11-28T07:05:54.037Z,89.20
2022-11-28T07:06:55.615Z,89.02
2022-11-28T07:08:00.697Z,88.99
2022-11-28T07:09:02.334Z,89.10
2022-11-28T07:10:04.467Z,88.87
2022-11-28T07:11:13.639Z,89.03
2022-11-28T07:12:15.268Z,89.34
2022-11-28T07:13:16.851Z,89.02
2022-11-28T07:14:18.447Z,88.68
2022-11-28T07:15:19.951Z,88.54
2022-11-28T07:16:23.900Z,87.75
2022-11-28T07:17:25.554Z,87.86
2022-11-28T07:18:27.143Z,87.63
2022-11-28T07:19:28.692Z,87.63
2022-11-28T07:20:30.245Z,87.68
2022-11-28T07:21:32.054Z,88.20
2022-11-28T07:22:33.610Z,87.71
2022-11-28T07:23:35.387Z,87.54
2022-11-28T07:24:37.105Z,86.91
2022-11-28T07:25:38.740Z,86.34
2022-11-28T07:26:40.419Z,86.08
2022-11-28T07:27:42.818Z,86.06
2022-11-28T07:28:45.314Z,86.09
2022-11-28T07:29:46.901Z,88.23
2022-11-28T07:30:48.587Z,97.72
2022-11-28T07:31:50.786Z,98.63
2022-11-28T07:32:52.667Z,97.35
2022-11-28T07:33:54.528Z,95.08
2022-11-28T07:34:56.092Z,93.19
2022-11-28T07:36:02.250Z,89.04
2022-11-28T07:37:03.797Z,87.48
2022-11-28T07:38:05.493Z,84.47
2022-11-28T07:39:16.010Z,84.80
2022-11-28T07:40:19.739Z,84.60
2022-11-28T07:41:26.053Z,85.28
2022-11-28T07:42:28.253Z,84.69
2022-11-28T07:43:29.939Z,85.05
2022-11-28T07:44:31.701Z,84.89
2022-11-28T07:45:53.842Z,92.25
2022-11-28T07:46:54.749Z,97.09
2022-11-28T07:47:56.399Z,94.27
2022-11-28T07:48:57.948Z,91.48
2022-11-28T07:49:59.471Z,89.46
2022-11-28T07:51:06.299Z,88.61
2022-11-28T07:52:07.870Z,87.04
2022-11-28T07:53:09.516Z,83.43
2022-11-28T07:54:11.244Z,82.90
2022-11-28T07:55:12.782Z,83.98
2022-11-28T07:56:20.555Z,84.09
2022-11-28T07:57:22.174Z,83.78
2022-11-28T07:58:23.874Z,83.46
2022-11-28T07:59:25.403Z,84.27
2022-11-28T08:00:26.995Z,84.36
2022-11-28T08:01:35.991Z,84.47
2022-11-28T08:02:39.009Z,83.35
2022-11-28T08:03:41.214Z,83.20
2022-11-28T08:04:47.759Z,83.67
2022-11-28T08:05:51.197Z,83.19
2022-11-28T08:06:52.710Z,83.31
2022-11-28T08:07:54.487Z,83.39
2022-11-28T08:08:57.347Z,83.25
2022-11-28T08:09:58.958Z,83.20
2022-11-28T08:11:03.267Z,82.62
2022-11-28T08:13:07.414Z,82.86
2022-11-28T08:14:09.378Z,82.53
2022-11-28T08:15:11.651Z,83.58
2022-11-28T08:16:19.448Z,84.33
2022-11-28T08:17:21.169Z,83.52
2022-11-28T08:18:22.982Z,83.52
2022-11-28T08:19:24.955Z,83.76
2022-11-28T08:20:26.568Z,83.38
2022-11-28T08:21:30.840Z,83.45
2022-11-28T08:22:32.425Z,84.01
2022-11-28T08:23:35.663Z,83.96
2022-11-28T08:24:37.300Z,85.52
2022-11-28T08:25:38.979Z,85.90
2022-11-28T08:26:40.633Z,87.13
2022-11-28T08:27:42.159Z,86.58
2022-11-28T08:28:44.250Z,86.57
2022-11-28T08:29:50.402Z,86.68
2022-11-28T08:30:53.928Z,86.81
2022-11-28T08:31:55.574Z,87.59
2022-11-28T08:32:57.305Z,87.66
2022-11-28T08:34:02.182Z,87.01
2022-11-28T08:35:03.855Z,87.76
2022-11-28T08:36:10.798Z,88.53
2022-11-28T08:37:12.303Z,89.49
2022-11-28T08:38:13.851Z,89.20
2022-11-28T08:39:24.454Z,89.25
2022-11-28T08:40:26.810Z,89.68
2022-11-28T08:41:28.574Z,90.38
2022-11-28T08:42:30.197Z,90.45
2022-11-28T08:43:31.785Z,90.32
2022-11-28T08:44:33.806Z,89.37
2022-11-28T08:45:37.874Z,90.08
2022-11-28T08:46:39.530Z,89.60
2022-11-28T08:47:41.079Z,90.29
2022-11-28T08:48:43.239Z,90.17
2022-11-28T08:49:45.043Z,90.93
2022-11-28T08:50:50.279Z,91.67
2022-11-28T08:51:52.062Z,91.51
2022-11-28T08:52:53.621Z,91.96
2022-11-28T08:53:59.401Z,90.83
2022-11-28T08:55:01.400Z,91.32
2022-11-28T08:56:03.660Z,90.57
2022-11-28T08:57:05.658Z,90.85
2022-11-28T08:58:07.469Z,91.44
2022-11-28T08:59:09.606Z,90.40
2022-11-28T09:00:11.720Z,89.86
2022-11-28T09:01:22.826Z,89.46
2022-11-28T09:02:26.033Z,89.96
2022-11-28T09:03:28.118Z,88.85
2022-11-28T09:04:29.754Z,87.99
2022-11-28T09:05:31.899Z,89.03
2022-11-28T09:06:33.781Z,89.92
2022-11-28T09:07:35.447Z,89.66
2022-11-28T09:08:37.052Z,88.90
2022-11-28T09:09:38.666Z,88.62
2022-11-28T09:10:41.214Z,89.15
2022-11-28T09:11:43.130Z,88.53
2022-11-28T09:12:44.656Z,87.23
2022-11-28T09:13:46.764Z,87.15
2022-11-28T09:14:48.323Z,87.14
2022-11-28T09:15:52.607Z,87.05
2022-11-28T09:16:55.302Z,87.04
2022-11-28T09:17:56.997Z,86.62
2022-11-28T09:18:59.459Z,85.97
2022-11-28T09:20:00.963Z,85.38
2022-11-28T09:21:05.434Z,84.51
2022-11-28T09:22:06.967Z,83.93
2022-11-28T09:23:09.527Z,83.44
2022-11-28T09:24:13.982Z,83.50
2022-11-28T09:25:16.052Z,83.23
2022-11-28T09:26:20.383Z,83.61
2022-11-28T09:27:21.998Z,83.11
2022-11-28T09:28:24.216Z,82.66
2022-11-28T09:29:27.063Z,83.42
2022-11-28T09:30:28.832Z,82.62
2022-11-28T09:31:30.535Z,81.43
2022-11-28T09:32:32.310Z,82.01
2022-11-28T09:33:34.493Z,81.86
2022-11-28T09:34:36.073Z,82.04
2022-11-28T09:35:40.913Z,81.06
2022-11-28T09:36:42.483Z,80.84
2022-11-28T09:37:44.330Z,81.76
2022-11-28T09:38:46.305Z,80.79
2022-11-28T09:40:11.561Z,80.44
2022-11-28T09:41:27.624Z,79.86
2022-11-28T09:42:35.199Z,80.71
2022-11-28T09:43:42.836Z,81.54
2022-11-28T09:44:50.685Z,80.98
2022-11-28T09:45:55.158Z,81.01
2022-11-28T09:47:00.356Z,81.17
2022-11-28T09:48:23.037Z,82.03
2022-11-28T09:49:46.603Z,82.41
2022-11-28T09:50:52.888Z,82.05
2022-11-28T09:52:06.419Z,82.00
2022-11-28T09:53:20.869Z,83.32
2022-11-28T09:54:22.354Z,83.04
2022-11-28T09:55:23.848Z,82.82
2022-11-28T09:56:25.573Z,82.53
2022-11-28T09:57:40.583Z,81.43
2022-11-28T09:58:50.660Z,83.15
2022-11-28T09:59:52.198Z,83.06
2022-11-28T10:01:03.097Z,82.12
2022-11-28T10:02:21.303Z,82.18
2022-11-28T10:03:54.030Z,82.31
2022-11-28T10:04:55.614Z,79.77
2022-11-28T10:06:03.381Z,80.51
2022-11-28T10:07:12.039Z,80.15
2022-11-28T10:08:32.728Z,79.73
2022-11-28T10:10:25.442Z,79.42
2022-11-28T10:12:00.610Z,78.83
2022-11-28T10:13:13.758Z,77.12
2022-11-28T10:14:42.687Z,80.36
2022-11-28T10:16:10.192Z,81.28
2022-11-28T10:17:17.284Z,81.44
2022-11-28T10:18:24.434Z,78.42
2022-11-28T10:21:05.300Z,77.81
2022-11-28T10:22:15.440Z,76.58
2022-11-28T10:23:25.347Z,75.26
2022-11-28T10:24:44.854Z,75.27
2022-11-28T10:25:51.019Z,75.81
2022-11-28T10:26:58.849Z,76.17
2022-11-28T10:28:01.531Z,74.56
2022-11-28T10:29:17.729Z,74.54
2022-11-28T10:30:29.177Z,75.35
2022-11-28T10:31:39.406Z,75.98
2022-11-28T10:32:45.158Z,76.46
2022-11-28T10:33:56.103Z,75.25
2022-11-28T10:35:26.773Z,73.91
2022-11-28T10:36:55.520Z,75.52
2022-11-28T10:37:57.228Z,76.17
2022-11-28T10:39:09.899Z,74.58
2022-11-28T10:40:21.077Z,73.81
2022-11-28T10:41:44.949Z,73.49
2022-11-28T10:42:52.126Z,74.95
2022-11-28T10:44:06.502Z,74.08
2022-11-28T10:45:55.494Z,73.69
2022-11-28T10:47:29.407Z,74.56
2022-11-28T10:48:59.627Z,73.64
2022-11-28T10:50:16.362Z,74.05
2022-11-28T10:51:33.603Z,73.92
2022-11-28T10:52:45.910Z,73.70
2022-11-28T10:54:01.778Z,76.50
2022-11-28T10:55:25.792Z,74.70
2022-11-28T10:56:42.977Z,74.32
2022-11-28T10:58:21.621Z,74.71
2022-11-28T10:59:41.971Z,72.89
2022-11-28T11:00:45.555Z,73.12
2022-11-28T11:01:50.497Z,71.75
2022-11-28T11:02:57.225Z,72.71
2022-11-28T11:03:58.825Z,71.51
2022-11-28T11:05:00.744Z,72.93
2022-11-28T11:06:02.971Z,73.88
2022-11-28T11:07:44.219Z,74.11
2022-11-28T11:08:47.724Z,73.81
2022-11-28T11:09:49.333Z,74.49
2022-11-28T11:10:52.377Z,72.99
2022-11-28T11:12:00.915Z,73.02
2022-11-28T11:13:12.426Z,71.72
2022-11-28T11:14:13.972Z,72.99
2022-11-28T11:15:23.262Z,72.60
2022-11-28T11:16:24.871Z,73.05
2022-11-28T11:17:36.461Z,72.53
2022-11-28T11:18:44.418Z,72.77
2022-11-28T11:19:46.222Z,73.68
2022-11-28T11:20:47.768Z,73.15
2022-11-28T11:22:20.008Z,74.26
2022-11-28T11:23:23.078Z,73.40
2022-11-28T11:24:24.612Z,74.08
2022-11-28T11:25:28.191Z,72.86
2022-11-28T11:26:35.819Z,72.94
2022-11-28T11:27:38.101Z,72.38
2022-11-28T11:28:44.104Z,72.30
2022-11-28T11:29:48.161Z,72.24
2022-11-28T11:31:00.294Z,72.14
2022-11-28T11:32:06.252Z,72.74
2022-11-28T11:33:15.618Z,74.20
2022-11-28T11:34:19.791Z,73.87
2022-11-28T11:35:25.840Z,72.85
2022-11-28T11:36:36.861Z,71.78
2022-11-28T11:37:38.865Z,71.10
2022-11-28T11:38:40.430Z,71.30
2022-11-28T11:39:50.797Z,71.58
2022-11-28T11:40:52.853Z,71.77
2022-11-28T11:42:00.151Z,71.15
2022-11-28T11:43:01.722Z,73.24
2022-11-28T11:44:15.540Z,71.14
2022-11-28T11:45:29.860Z,71.35
2022-11-28T11:46:31.429Z,70.13
2022-11-28T11:47:44.072Z,70.14
2022-11-28T11:48:48.517Z,69.82
2022-11-28T11:49:50.484Z,70.09
2022-11-28T11:50:55.276Z,70.83
2022-11-28T11:51:59.210Z,72.00
2022-11-28T11:53:05.995Z,71.91
2022-11-28T11:54:13.268Z,69.10
2022-11-28T11:55:18.625Z,69.50
2022-11-28T11:56:20.379Z,70.04
2022-11-28T11:57:33.124Z,70.23
2022-11-28T11:58:44.846Z,69.77
2022-11-28T11:59:53.082Z,70.83
2022-11-28T12:00:58.563Z,69.80
2022-11-28T12:02:03.415Z,69.64
2022-11-28T12:03:15.090Z,67.87
2022-11-28T12:04:44.406Z,67.83
2022-11-28T12:06:14.166Z,66.36
2022-11-28T12:07:39.367Z,68.95
2022-11-28T12:08:50.192Z,68.63
2022-11-28T12:09:55.722Z,67.28
2022-11-28T12:11:17.467Z,68.51
2022-11-28T12:12:26.005Z,68.49
2022-11-28T12:13:27.682Z,68.64
2022-11-28T12:14:32.868Z,68.10
2022-11-28T12:16:09.070Z,67.65
2022-11-28T12:19:14.908Z,68.00
2022-11-28T12:20:37.618Z,67.51
2022-11-28T12:22:05.939Z,66.91
2022-11-28T12:23:39.553Z,67.58
2022-11-28T12:24:59.617Z,67.41
2022-11-28T12:26:21.880Z,67.80
2022-11-28T12:27:32.572Z,66.87
2022-11-28T12:28:58.762Z,68.40
2022-11-28T12:30:18.904Z,68.42
2022-11-28T12:31:20.480Z,67.27
2022-11-28T12:32:32.473Z,67.52
2022-11-28T12:33:55.739Z,68.52
2022-11-28T12:35:21.349Z,68.53
2022-11-28T12:36:48.093Z,68.68
2022-11-28T12:38:10.254Z,68.72
2022-11-28T12:39:46.451Z,70.01
2022-11-28T12:41:20.679Z,70.00
2022-11-28T12:42:46.796Z,70.22
2022-11-28T12:44:07.103Z,69.87
2022-11-28T12:45:47.012Z,70.13
2022-11-28T12:46:51.324Z,69.67
2022-11-28T12:48:02.679Z,68.94
2022-11-28T12:49:28.575Z,70.17
2022-11-28T12:50:38.075Z,70.50
2022-11-28T12:51:39.664Z,70.80
2022-11-28T12:53:02.173Z,70.67
2022-11-28T12:54:28.677Z,70.79
2022-11-28T12:55:44.125Z,70.46
2022-11-28T12:57:15.969Z,70.65
2022-11-28T12:58:29.979Z,69.31
2022-11-28T13:00:08.630Z,69.38
2022-11-28T13:01:32.042Z,70.83
2022-11-28T13:02:58.127Z,70.92
2022-11-28T13:04:02.693Z,70.24
2022-11-28T13:05:19.400Z,70.35
2022-11-28T13:06:40.443Z,70.02
2022-11-28T13:08:12.598Z,70.69
2022-11-28T13:09:32.738Z,71.22
2022-11-28T13:10:50.555Z,71.22
2022-11-28T13:12:16.381Z,70.24
2022-11-28T13:13:23.211Z,70.36
2022-11-28T13:14:36.733Z,70.45
2022-11-28T13:15:52.996Z,69.94
2022-11-28T13:16:59.356Z,70.35
2022-11-28T13:18:13.947Z,70.86
2022-11-28T13:19:33.625Z,71.72
2022-11-28T13:20:52.683Z,70.22
2022-11-28T13:22:05.901Z,71.22
2022-11-28T13:23:33.473Z,70.82
2022-11-28T13:24:55.676Z,71.59
2022-11-28T13:26:08.460Z,70.30
2022-11-28T13:27:37.804Z,71.16
2022-11-28T13:28:56.056Z,70.52
2022-11-28T13:30:32.065Z,70.38
2022-11-28T13:31:58.790Z,70.82
2022-11-28T13:33:22.360Z,70.72
2022-11-28T13:34:24.322Z,69.91
2022-11-28T13:35:28.694Z,70.57
2022-11-28T13:38:48.307Z,71.36
2022-11-28T13:39:54.645Z,72.25
2022-11-28T13:41:00.538Z,72.42
2022-11-28T13:43:54.009Z,72.10
2022-11-28T13:45:01.940Z,71.55
2022-11-28T13:46:04.616Z,71.66
2022-11-28T13:47:27.907Z,71.19
2022-11-28T13:50:25.450Z,71.02
2022-11-28T13:51:32.105Z,70.68
2022-11-28T13:52:41.948Z,70.40
2022-11-28T13:53:45.728Z,70.02
2022-11-28T13:54:50.194Z,70.35
2022-11-28T13:56:07.250Z,69.57
2022-11-28T13:57:22.828Z,70.09
2022-11-28T13:58:33.075Z,69.54
2022-11-28T13:59:35.383Z,69.32
2022-11-28T14:00:36.936Z,68.89
2022-11-28T14:01:48.034Z,69.83
2022-11-28T14:03:00.253Z,69.60
2022-11-28T14:04:11.121Z,70.98
2022-11-28T14:05:35.843Z,70.63
2022-11-28T14:06:47.711Z,69.31
2022-11-28T14:07:51.109Z,70.76
2022-11-28T14:09:39.298Z,70.42
2022-11-28T14:10:56.818Z,70.55
2022-11-28T14:12:20.362Z,70.96
2022-11-28T14:14:03.999Z,70.94
2022-11-28T14:15:17.651Z,71.16
2022-11-28T14:16:46.891Z,71.15
2022-11-28T14:18:39.083Z,71.62
2022-11-28T14:19:51.370Z,72.06
2022-11-28T14:21:00.107Z,72.41
2022-11-28T14:22:44.533Z,73.52
2022-11-28T14:24:24.606Z,72.10
2022-11-28T14:25:33.650Z,72.42
2022-11-28T14:26:38.547Z,72.80
2022-11-28T14:27:47.282Z,73.21
2022-11-28T14:28:49.843Z,73.27
2022-11-28T14:29:54.625Z,72.93
2022-11-28T14:31:17.745Z,72.95
2022-11-28T14:32:30.923Z,73.11
2022-11-28T14:33:42.552Z,73.50
2022-11-28T14:34:47.341Z,73.64
2022-11-28T14:35:52.220Z,74.26
2022-11-28T14:37:19.730Z,73.92
2022-11-28T14:38:30.251Z,73.61
2022-11-28T14:39:33.972Z,74.36
2022-11-28T14:40:53.389Z,74.23
2022-11-28T14:42:06.758Z,73.23
2022-11-28T14:43:45.918Z,73.86
2022-11-28T14:44:58.039Z,73.89
2022-11-28T14:46:16.494Z,73.95
2022-11-28T14:47:18.445Z,74.16
2022-11-28T14:48:23.021Z,74.34
2022-11-28T14:49:24.710Z,74.34
2022-11-28T14:50:26.246Z,74.21